createdAt,value
2019-01-26T00:00:02.941Z,13.3
2019-01-26T00:01:03.611Z,13.66
2019-01-26T00:02:03.289Z,13.24
2019-01-26T00:03:02.683Z,13.24
2019-01-26T00:04:02.974Z,13.16
2019-01-26T00:05:03.223Z,13.02
2019-01-26T00:06:03.547Z,13.02
2019-01-26T00:07:03.660Z,12.31
2019-01-26T00:08:02.807Z,12.31
2019-01-26T00:09:03.129Z,14.35
2019-01-26T00:10:03.448Z,14.35
2019-01-26T00:11:03.265Z,13.55
2019-01-26T00:12:02.982Z,13.55
2019-01-26T00:13:03.119Z,12.92
2019-01-26T00:14:02.854Z,12.99
2019-01-26T00:15:02.976Z,11.89
2019-01-26T00:16:02.704Z,13.55
2019-01-26T00:17:02.851Z,11.49
2019-01-26T00:18:03.257Z,12
2019-01-26T00:19:03.264Z,12.45
2019-01-26T00:20:02.653Z,13.4
2019-01-26T00:21:03.126Z,11.85
2019-01-26T00:22:02.673Z,13.15
2019-01-26T00:23:03.382Z,14.35
2019-01-26T00:24:03.528Z,14.35
2019-01-26T00:26:03.461Z,12.46
2019-01-26T00:27:03.521Z,12.44
2019-01-26T00:28:02.694Z,13.16
2019-01-26T00:29:02.800Z,14.37
2019-01-26T00:30:03.226Z,14.37
2019-01-26T00:31:03.162Z,12.7
2019-01-26T00:32:03.254Z,12.7
2019-01-26T00:33:03.123Z,12.7
2019-01-26T00:34:03.080Z,15.1
2019-01-26T00:35:03.187Z,13.4
2019-01-26T00:36:02.621Z,13.4
2019-01-26T00:37:02.081Z,13.38
2019-01-26T00:38:03.309Z,14.22
2019-01-26T00:39:03.349Z,13.85
2019-01-26T00:40:03.319Z,14.15
2019-01-26T00:41:03.477Z,14.15
2019-01-26T00:42:03.584Z,12.58
2019-01-26T00:43:03.531Z,14.46
2019-01-26T00:44:03.110Z,14.7
2019-01-26T00:45:03.532Z,14.7
2019-01-26T00:46:02.827Z,14.11
2019-01-26T00:47:02.985Z,12.51
2019-01-26T00:48:03.315Z,15.04
2019-01-26T00:49:03.500Z,15.04
2019-01-26T00:50:03.389Z,14.25
2019-01-26T00:51:03.107Z,14.25
2019-01-26T00:52:02.926Z,13.48
2019-01-26T00:53:03.129Z,13.48
2019-01-26T00:54:03.229Z,13.78
2019-01-26T00:55:02.936Z,13.78
2019-01-26T00:56:02.832Z,14.25
2019-01-26T00:57:02.992Z,16.09
2019-01-26T00:58:02.611Z,15.05
2019-01-26T00:59:03.576Z,14.81
2019-01-26T01:00:03.441Z,14.93
2019-01-26T01:01:02.969Z,13.54
2019-01-26T01:02:03.316Z,14.36
2019-01-26T01:03:03.353Z,16.11
2019-01-26T01:04:02.881Z,15.76
2019-01-26T01:05:02.982Z,17.78
2019-01-26T01:06:03.237Z,16.22
2019-01-26T01:07:03.380Z,15.58
2019-01-26T01:08:03.534Z,15.88
2019-01-26T01:09:02.742Z,15.88
2019-01-26T01:10:03.204Z,14.44
2019-01-26T01:11:03.394Z,15.47
2019-01-26T01:12:02.893Z,15.14
2019-01-26T01:13:02.938Z,16.06
2019-01-26T01:14:03.558Z,15.96
2019-01-26T01:15:03.636Z,15.96
2019-01-26T01:16:02.865Z,17.64
2019-01-26T01:17:03.433Z,17.64
2019-01-26T01:18:03.014Z,16.42
2019-01-26T01:19:03.272Z,15.95
2019-01-26T01:20:03.841Z,15.95
2019-01-26T01:21:02.878Z,18.92
2019-01-26T01:22:02.987Z,18.92
2019-01-26T01:23:03.483Z,17.63
2019-01-26T01:24:01.795Z,18.77
2019-01-26T01:25:02.663Z,17.78
2019-01-26T01:26:04.195Z,17.78
2019-01-26T01:27:03.430Z,18.6
2019-01-26T01:28:03.116Z,18.78
2019-01-26T01:29:02.859Z,17.32
2019-01-26T01:30:03.332Z,17.34
2019-01-26T01:31:03.610Z,17.91
2019-01-26T01:32:03.028Z,17.91
2019-01-26T01:33:03.441Z,19.96
2019-01-26T01:34:03.093Z,17.76
2019-01-26T01:35:03.358Z,19.25
2019-01-26T01:36:03.599Z,17.2
2019-01-26T01:37:03.194Z,17.97
2019-01-26T01:38:03.437Z,17.97
2019-01-26T01:39:03.519Z,18.51
2019-01-26T01:40:03.809Z,17.96
2019-01-26T01:41:03.347Z,17.96
2019-01-26T01:42:03.427Z,17.98
2019-01-26T01:43:03.032Z,18.32
2019-01-26T01:44:03.394Z,19.24
2019-01-26T01:45:02.144Z,18.91
2019-01-26T01:46:01.987Z,18.29
2019-01-26T01:47:02.227Z,18.13
2019-01-26T01:48:03.345Z,17.46
2019-01-26T01:49:03.012Z,17.55
2019-01-26T01:50:03.335Z,17.55
2019-01-26T01:51:03.378Z,18.59
2019-01-26T01:52:03.472Z,18.09
2019-01-26T01:53:03.302Z,17.72
2019-01-26T01:54:02.896Z,17.72
2019-01-26T01:55:02.942Z,19.09
2019-01-26T01:56:03.009Z,19.09
2019-01-26T01:57:02.816Z,19.56
2019-01-26T01:58:03.523Z,17.04
2019-01-26T01:59:03.403Z,18.32
2019-01-26T02:00:03.530Z,18.32
2019-01-26T02:01:03.251Z,19.41
2019-01-26T02:02:02.854Z,19.41
2019-01-26T02:03:03.610Z,17.33
2019-01-26T02:04:03.149Z,16.83
2019-01-26T02:05:03.682Z,16.83
2019-01-26T02:06:02.440Z,18.76
2019-01-26T02:07:03.149Z,18.76
2019-01-26T02:08:03.757Z,17.94
2019-01-26T02:09:03.291Z,17.92
2019-01-26T02:10:03.543Z,17.92
2019-01-26T02:11:03.185Z,18.14
2019-01-26T02:12:03.518Z,17.64
2019-01-26T02:13:02.860Z,19
2019-01-26T02:14:02.745Z,17.53
2019-01-26T02:15:02.974Z,17.84
2019-01-26T02:16:02.691Z,17.21
2019-01-26T02:17:03.444Z,18.94
2019-01-26T02:18:02.878Z,18.94
2019-01-26T02:19:03.222Z,17.38
2019-01-26T02:20:03.567Z,17.01
2019-01-26T02:21:03.397Z,17.01
2019-01-26T02:22:02.983Z,16.99
2019-01-26T02:23:03.512Z,17.05
2019-01-26T02:24:03.186Z,17.05
2019-01-26T02:25:03.225Z,16.73
2019-01-26T02:26:02.815Z,17.82
2019-01-26T02:27:03.054Z,17.09
2019-01-26T02:28:01.804Z,16.39
2019-01-26T02:29:03.609Z,18.52
2019-01-26T02:30:03.472Z,15.64
2019-01-26T02:31:03.121Z,17.67
2019-01-26T02:32:03.195Z,17.42
2019-01-26T02:33:03.776Z,16.61
2019-01-26T02:34:03.325Z,18.36
2019-01-26T02:35:03.359Z,19.66
2019-01-26T02:36:03.432Z,17.91
2019-01-26T02:37:02.981Z,17.65
2019-01-26T02:38:03.549Z,17.25
2019-01-26T02:39:03.195Z,18.38
2019-01-26T02:40:03.340Z,17.1
2019-01-26T02:41:03.130Z,15.88
2019-01-26T02:42:02.829Z,15.88
2019-01-26T02:43:03.432Z,16.72
2019-01-26T02:44:03.466Z,16.82
2019-01-26T02:45:03.126Z,16.82
2019-01-26T02:46:04.126Z,17.49
2019-01-26T02:47:03.166Z,16.66
2019-01-26T02:48:03.146Z,16.19
2019-01-26T02:49:02.814Z,14.25
2019-01-26T02:50:03.176Z,17.8
2019-01-26T02:51:01.906Z,14.36
2019-01-26T02:52:03.142Z,16.55
2019-01-26T02:53:03.330Z,16.05
2019-01-26T02:54:02.976Z,18.05
2019-01-26T02:55:02.897Z,18.05
2019-01-26T02:56:03.613Z,16.16
2019-01-26T02:57:02.620Z,16.16
2019-01-26T02:58:02.937Z,15.9
2019-01-26T02:59:03.349Z,15.9
2019-01-26T03:00:03.407Z,15.75
2019-01-26T03:01:02.779Z,15.75
2019-01-26T03:02:02.828Z,15.58
2019-01-26T03:03:03.562Z,15.58
2019-01-26T03:04:03.394Z,15.49
2019-01-26T03:05:03.073Z,16
2019-01-26T03:06:02.808Z,13.79
2019-01-26T03:07:03.059Z,15.48
2019-01-26T03:08:03.277Z,14.68
2019-01-26T03:09:02.941Z,14.68
2019-01-26T03:10:03.239Z,13.72
2019-01-26T03:11:02.684Z,15.35
2019-01-26T03:14:03.048Z,14.26
2019-01-26T03:15:03.219Z,15.6
2019-01-26T03:16:02.777Z,14.23
2019-01-26T03:17:06.545Z,13.82
2019-01-26T03:18:03.259Z,13.58
2019-01-26T03:19:03.269Z,14.17
2019-01-26T03:20:02.727Z,13.26
2019-01-26T03:21:03.217Z,13.26
2019-01-26T03:22:03.155Z,12.13
2019-01-26T03:23:03.706Z,14.18
2019-01-26T03:24:02.707Z,13.21
2019-01-26T03:25:03.246Z,12.35
2019-01-26T03:26:03.183Z,13.32
2019-01-26T03:27:02.933Z,13.32
2019-01-26T03:28:02.713Z,13.75
2019-01-26T03:29:03.178Z,13.75
2019-01-26T03:30:03.024Z,12.42
2019-01-26T03:31:03.663Z,11.87
2019-01-26T03:32:02.943Z,11.44
2019-01-26T03:33:02.937Z,12.31
2019-01-26T03:34:02.776Z,12.56
2019-01-26T03:35:03.195Z,10.97
2019-01-26T03:36:03.373Z,10.97
2019-01-26T03:37:03.503Z,11.73
2019-01-26T03:38:02.793Z,11.73
2019-01-26T03:39:03.261Z,12.12
2019-01-26T03:40:03.560Z,11.59
2019-01-26T03:41:02.896Z,11.59
2019-01-26T03:42:03.483Z,11.27
2019-01-26T03:43:03.404Z,11.39
2019-01-26T03:44:03.228Z,12.26
2019-01-26T03:45:04.088Z,11.94
2019-01-26T03:46:03.320Z,12.8
2019-01-26T03:47:03.455Z,12.8
2019-01-26T03:48:02.896Z,11.81
2019-01-26T03:49:03.656Z,12.31
2019-01-26T03:50:03.300Z,13.84
2019-01-26T03:51:02.674Z,13.84
2019-01-26T03:52:03.308Z,11.66
2019-01-26T03:53:02.768Z,11.66
2019-01-26T03:54:02.825Z,13.64
2019-01-26T03:55:02.966Z,11.92
2019-01-26T03:56:03.096Z,11.55
2019-01-26T03:57:02.901Z,13.24
2019-01-26T03:58:02.054Z,11.79
2019-01-26T03:59:03.406Z,11.15
2019-01-26T04:00:03.222Z,11.56
2019-01-26T04:01:03.709Z,10.69
2019-01-26T04:02:03.503Z,11.2
2019-01-26T04:03:02.834Z,11.09
2019-01-26T04:04:02.739Z,10.91
2019-01-26T04:05:03.313Z,10.94
2019-01-26T04:06:03.501Z,11.18
2019-01-26T04:07:03.554Z,12.04
2019-01-26T04:08:02.765Z,11.18
2019-01-26T04:09:03.377Z,9.84
2019-01-26T04:10:02.962Z,10.75
2019-01-26T04:11:03.437Z,11.67
2019-01-26T04:12:03.031Z,10.52
2019-01-26T04:13:02.687Z,9.48
2019-01-26T04:14:03.481Z,11.08
2019-01-26T04:15:03.007Z,11.08
2019-01-26T04:16:03.283Z,9.29
2019-01-26T04:17:03.541Z,10.79
2019-01-26T04:18:03.302Z,10.79
2019-01-26T04:19:03.372Z,10.45
2019-01-26T04:20:02.976Z,11.26
2019-01-26T04:21:02.660Z,11.26
2019-01-26T04:22:02.484Z,10.69
2019-01-26T04:23:02.157Z,11.41
2019-01-26T04:24:03.239Z,11.41
2019-01-26T04:25:03.186Z,11.41
2019-01-26T04:26:01.925Z,11.35
2019-01-26T04:27:02.906Z,11.35
2019-01-26T04:28:02.752Z,11.35
2019-01-26T04:29:02.851Z,9.52
2019-01-26T04:30:02.328Z,11.28
2019-01-26T04:31:03.625Z,10.96
2019-01-26T04:32:03.466Z,10.11
2019-01-26T04:33:02.830Z,10.74
2019-01-26T04:34:02.737Z,10.08
2019-01-26T04:35:02.990Z,10.56
2019-01-26T04:36:03.401Z,10.56
2019-01-26T04:37:03.500Z,10.87
2019-01-26T04:38:03.922Z,10.87
2019-01-26T04:39:02.653Z,9.84
2019-01-26T04:40:03.385Z,11.01
2019-01-26T04:41:03.481Z,11.01
2019-01-26T04:42:02.789Z,10.77
2019-01-26T04:43:03.323Z,10.18
2019-01-26T04:44:03.672Z,9.91
2019-01-26T04:45:03.077Z,9.91
2019-01-26T04:46:03.179Z,10.44
2019-01-26T04:47:02.858Z,10.92
2019-01-26T04:48:03.469Z,10.8
2019-01-26T04:49:02.346Z,10.02
2019-01-26T04:50:02.913Z,10.02
2019-01-26T04:51:03.634Z,10.79
2019-01-26T04:52:02.835Z,10.08
2019-01-26T04:53:03.575Z,9.61
2019-01-26T04:54:02.799Z,11.61
2019-01-26T04:55:03.506Z,10.48
2019-01-26T04:56:03.442Z,10.13
2019-01-26T04:57:03.563Z,11.19
2019-01-26T04:58:03.016Z,10.41
2019-01-26T04:59:02.783Z,8.88
2019-01-26T05:00:03.330Z,8.88
2019-01-26T05:01:03.388Z,9.05
2019-01-26T05:02:03.149Z,9.05
2019-01-26T05:03:02.976Z,9.25
2019-01-26T05:04:03.722Z,9.25
2019-01-26T05:05:03.524Z,9.72
2019-01-26T05:06:02.842Z,9.72
2019-01-26T05:07:03.505Z,8.72
2019-01-26T05:08:03.558Z,8.49
2019-01-26T05:09:03.409Z,8.45
2019-01-26T05:10:03.558Z,9.44
2019-01-26T05:11:03.213Z,8.06
2019-01-26T05:12:02.735Z,9.53
2019-01-26T05:13:03.132Z,9.53
2019-01-26T05:14:03.050Z,9.53
2019-01-26T05:15:02.966Z,7.93
2019-01-26T05:16:02.947Z,7.93
2019-01-26T05:17:02.780Z,8.28
2019-01-26T05:18:02.873Z,8.33
2019-01-26T05:19:03.153Z,8.61
2019-01-26T05:20:03.150Z,9.4
2019-01-26T05:21:03.400Z,7.58
2019-01-26T05:22:03.553Z,8.72
2019-01-26T05:23:03.366Z,8.35
2019-01-26T05:24:02.923Z,8.35
2019-01-26T05:25:02.770Z,8.23
2019-01-26T05:26:03.658Z,8.23
2019-01-26T05:27:03.126Z,9.32
2019-01-26T05:28:03.677Z,9.32
2019-01-26T05:29:02.862Z,8.22
2019-01-26T05:30:03.582Z,8.22
2019-01-26T05:31:03.362Z,7.97
2019-01-26T05:32:02.807Z,7.42
2019-01-26T05:33:03.293Z,7.34
2019-01-26T05:34:02.925Z,8.01
2019-01-26T05:35:02.508Z,9.11
2019-01-26T05:36:02.774Z,8.54
2019-01-26T05:37:02.926Z,7.79
2019-01-26T05:38:03.350Z,8.27
2019-01-26T05:39:03.215Z,8.96
2019-01-26T05:40:03.076Z,8.06
2019-01-26T05:41:02.886Z,8.04
2019-01-26T05:42:03.024Z,7.05
2019-01-26T05:43:03.536Z,8.02
2019-01-26T05:44:03.261Z,7.19
2019-01-26T05:45:03.675Z,6.45
2019-01-26T05:46:03.458Z,7.55
2019-01-26T05:47:03.012Z,6.64
2019-01-26T05:48:03.611Z,6.64
2019-01-26T05:49:03.699Z,6.12
2019-01-26T05:50:03.485Z,6.12
2019-01-26T05:51:03.547Z,6.26
2019-01-26T05:52:03.587Z,6.26
2019-01-26T05:53:03.640Z,7.23
2019-01-26T05:54:03.124Z,7.23
2019-01-26T05:55:03.122Z,6.65
2019-01-26T05:56:03.605Z,6.25
2019-01-26T05:57:02.855Z,6.99
2019-01-26T05:58:03.636Z,6.99
2019-01-26T05:59:03.183Z,7.02
2019-01-26T06:00:02.853Z,6.09
2019-01-26T06:01:03.694Z,6.09
2019-01-26T06:02:02.869Z,5.9
2019-01-26T06:03:03.268Z,5.9
2019-01-26T06:04:01.546Z,6.51
2019-01-26T06:05:02.539Z,7.09
2019-01-26T06:06:03.255Z,6.31
2019-01-26T06:07:03.047Z,6.55
2019-01-26T06:08:03.027Z,6.23
2019-01-26T06:09:02.858Z,6.12
2019-01-26T06:10:03.084Z,5.65
2019-01-26T06:11:03.609Z,6.77
2019-01-26T06:12:03.623Z,6.64
2019-01-26T06:13:03.381Z,7.09
2019-01-26T06:14:03.722Z,7.08
2019-01-26T06:15:03.231Z,6.82
2019-01-26T06:16:02.917Z,6.82
2019-01-26T06:17:03.610Z,6.63
2019-01-26T06:18:03.363Z,6.63
2019-01-26T06:19:03.339Z,6.56
2019-01-26T06:20:03.127Z,6.38
2019-01-26T06:21:03.282Z,6.51
2019-01-26T06:22:03.377Z,6.51
2019-01-26T06:23:02.966Z,6.68
2019-01-26T06:24:02.862Z,7.26
2019-01-26T06:25:03.521Z,6.48
2019-01-26T06:26:03.610Z,6.79
2019-01-26T06:27:03.467Z,6.6
2019-01-26T06:28:03.118Z,6.36
2019-01-26T06:29:02.743Z,7.53
2019-01-26T06:30:03.564Z,7.05
2019-01-26T06:31:02.219Z,6.72
2019-01-26T06:32:03.119Z,6.95
2019-01-26T06:33:03.272Z,8.91
2019-01-26T06:34:03.808Z,7.2
2019-01-26T06:35:02.739Z,6.99
2019-01-26T06:36:03.816Z,8.24
2019-01-26T06:37:03.407Z,7.34
2019-01-26T06:38:03.545Z,7.46
2019-01-26T06:39:03.506Z,7.43
2019-01-26T06:40:02.922Z,7.43
2019-01-26T06:41:03.495Z,8.06
2019-01-26T06:42:02.539Z,6.44
2019-01-26T06:43:02.832Z,7.35
2019-01-26T06:44:03.244Z,7.01
2019-01-26T06:45:02.935Z,7.08
2019-01-26T06:46:02.458Z,7.05
2019-01-26T06:47:03.298Z,7.09
2019-01-26T06:48:03.037Z,7.69
2019-01-26T06:49:03.210Z,7.69
2019-01-26T06:50:02.823Z,7.48
2019-01-26T06:51:03.124Z,7.83
2019-01-26T06:52:03.707Z,7.83
2019-01-26T06:53:03.115Z,7.91
2019-01-26T06:54:03.631Z,8.07
2019-01-26T06:55:03.014Z,9.87
2019-01-26T06:56:02.933Z,8.18
2019-01-26T06:57:03.371Z,8.18
2019-01-26T06:58:03.023Z,6.84
2019-01-26T06:59:02.888Z,6.39
2019-01-26T07:00:03.583Z,7.73
2019-01-26T07:01:02.982Z,7.73
2019-01-26T07:02:03.633Z,7.78
2019-01-26T07:03:03.151Z,7.78
2019-01-26T07:04:03.406Z,7.77
2019-01-26T07:05:03.728Z,7.77
2019-01-26T07:06:03.720Z,7.5
2019-01-26T07:07:02.792Z,7.26
2019-01-26T07:08:03.301Z,7.26
2019-01-26T07:09:03.146Z,7.16
2019-01-26T07:10:02.202Z,7.24
2019-01-26T07:11:03.238Z,7.24
2019-01-26T07:12:03.195Z,6.6
2019-01-26T07:13:02.972Z,7.91
2019-01-26T07:14:02.763Z,6.8
2019-01-26T07:15:03.272Z,6.8
2019-01-26T07:16:03.031Z,7.69
2019-01-26T07:17:03.784Z,7.34
2019-01-26T07:18:09.831Z,7.01
2019-01-26T07:19:02.769Z,6.9
2019-01-26T07:20:03.160Z,6.82
2019-01-26T07:21:03.650Z,7.38
2019-01-26T07:22:03.114Z,7.21
2019-01-26T07:23:03.367Z,7.38
2019-01-26T07:24:02.972Z,8.37
2019-01-26T07:25:03.211Z,8.37
2019-01-26T07:26:03.190Z,8.01
2019-01-26T07:27:02.854Z,8.01
2019-01-26T07:28:03.116Z,8.01
2019-01-26T07:29:02.614Z,8.01
2019-01-26T07:30:03.262Z,7.86
2019-01-26T07:31:03.452Z,7.59
2019-01-26T07:32:03.043Z,7.94
2019-01-26T07:33:01.833Z,8.02
2019-01-26T07:34:01.969Z,7.84
2019-01-26T07:35:03.275Z,7.84
2019-01-26T07:36:03.233Z,7.94
2019-01-26T07:37:03.425Z,7.94
2019-01-26T07:38:03.517Z,7.38
2019-01-26T07:39:03.215Z,8.56
2019-01-26T07:40:03.593Z,8.26
2019-01-26T07:41:03.054Z,8.26
2019-01-26T07:42:02.780Z,7.55
2019-01-26T07:43:03.626Z,7.55
2019-01-26T07:44:02.685Z,7.24
2019-01-26T07:45:03.501Z,6.69
2019-01-26T07:46:03.390Z,6.69
2019-01-26T07:47:02.856Z,7.69
2019-01-26T07:48:02.707Z,7.27
2019-01-26T07:49:03.471Z,7.27
2019-01-26T07:50:03.524Z,7.75
2019-01-26T07:51:03.406Z,7.75
2019-01-26T07:52:03.053Z,9.46
2019-01-26T07:53:03.534Z,9.46
2019-01-26T07:54:02.590Z,9.12
2019-01-26T07:55:03.142Z,8.64
2019-01-26T07:56:03.111Z,7.79
2019-01-26T07:57:03.527Z,7.79
2019-01-26T07:58:01.935Z,7.52
2019-01-26T07:59:01.697Z,8.64
2019-01-26T08:00:02.867Z,8.79
2019-01-26T08:01:03.599Z,9.34
2019-01-26T08:02:02.859Z,9.26
2019-01-26T08:03:03.268Z,9.26
2019-01-26T08:04:02.906Z,8.54
2019-01-26T08:05:02.696Z,8.34
2019-01-26T08:06:02.780Z,7.84
2019-01-26T08:07:02.984Z,7.84
2019-01-26T08:08:03.597Z,9.77
2019-01-26T08:09:03.318Z,9.77
2019-01-26T08:10:03.347Z,8.75
2019-01-26T08:11:03.337Z,9.36
2019-01-26T08:12:03.339Z,8.44
2019-01-26T08:13:02.935Z,8.44
2019-01-26T08:14:03.292Z,7.98
2019-01-26T08:15:03.174Z,7.98
2019-01-26T08:16:03.519Z,8.73
2019-01-26T08:17:03.243Z,8.73
2019-01-26T08:18:03.099Z,8.33
2019-01-26T08:19:02.645Z,9.39
2019-01-26T08:20:03.154Z,8.88
2019-01-26T08:21:03.652Z,8.56
2019-01-26T08:22:02.363Z,7.84
2019-01-26T08:23:03.819Z,7.19
2019-01-26T08:24:02.958Z,7.8
2019-01-26T08:25:02.918Z,8.16
2019-01-26T08:26:02.548Z,7.34
2019-01-26T08:27:02.741Z,7.34
2019-01-26T08:28:02.631Z,7.54
2019-01-26T08:29:03.030Z,7.54
2019-01-26T08:30:03.334Z,8.34
2019-01-26T08:31:02.882Z,8.34
2019-01-26T08:32:02.662Z,7.26
2019-01-26T08:33:03.481Z,7.26
2019-01-26T08:34:03.764Z,8.29
2019-01-26T08:35:02.941Z,7.69
2019-01-26T08:36:02.656Z,7.54
2019-01-26T08:37:03.249Z,7.54
2019-01-26T08:38:03.348Z,8.42
2019-01-26T08:39:03.050Z,7.54
2019-01-26T08:40:03.132Z,8.48
2019-01-26T08:41:03.941Z,8.48
2019-01-26T08:42:03.007Z,7.76
2019-01-26T08:43:02.925Z,8.37
2019-01-26T08:44:03.468Z,8.39
2019-01-26T08:45:02.161Z,7.45
2019-01-26T08:46:03.673Z,7.18
2019-01-26T08:47:02.941Z,8.14
2019-01-26T08:48:02.907Z,7.42
2019-01-26T08:49:03.546Z,8.31
2019-01-26T08:50:03.177Z,8.86
2019-01-26T08:51:03.271Z,7.57
2019-01-26T08:52:03.301Z,7.69
2019-01-26T08:53:03.693Z,9.06
2019-01-26T08:54:03.287Z,10.36
2019-01-26T08:55:02.964Z,10.36
2019-01-26T08:56:02.779Z,10.12
2019-01-26T08:57:02.810Z,8.54
2019-01-26T08:58:02.998Z,9.07
2019-01-26T08:59:03.497Z,9.07
2019-01-26T09:00:03.484Z,8.14
2019-01-26T09:01:03.111Z,8.14
2019-01-26T09:02:03.438Z,8.31
2019-01-26T09:03:02.979Z,10.7
2019-01-26T09:04:02.798Z,8.42
2019-01-26T09:05:03.141Z,8.42
2019-01-26T09:06:03.348Z,7.48
2019-01-26T09:07:03.673Z,8.82
2019-01-26T09:08:02.838Z,8.71
2019-01-26T09:09:03.459Z,8.71
2019-01-26T09:10:03.008Z,7.26
2019-01-26T09:11:03.678Z,7.33
2019-01-26T09:12:02.316Z,7.32
2019-01-26T09:13:03.500Z,8.21
2019-01-26T09:14:02.377Z,7.74
2019-01-26T09:15:03.406Z,7.74
2019-01-26T09:16:03.639Z,7.95
2019-01-26T09:17:03.506Z,7.95
2019-01-26T09:18:02.805Z,8.34
2019-01-26T09:19:03.235Z,8.34
2019-01-26T09:20:03.172Z,8.74
2019-01-26T09:21:03.019Z,8.74
2019-01-26T09:22:02.758Z,10.12
2019-01-26T09:23:03.187Z,7.88
2019-01-26T09:24:02.787Z,7.88
2019-01-26T09:26:03.383Z,10.49
2019-01-26T09:27:02.958Z,8.95
2019-01-26T09:28:03.314Z,11.72
2019-01-26T09:29:03.223Z,11.72
2019-01-26T09:30:03.321Z,9.05
2019-01-26T09:31:02.932Z,8.99
2019-01-26T09:32:02.276Z,8.47
2019-01-26T09:33:03.517Z,8.47
2019-01-26T09:34:03.043Z,7.62
2019-01-26T09:35:02.202Z,9.28
2019-01-26T09:36:01.847Z,8.98
2019-01-26T09:37:02.516Z,8.75
2019-01-26T09:38:02.801Z,8.45
2019-01-26T09:39:03.062Z,9.59
2019-01-26T09:40:03.141Z,9.59
2019-01-26T09:41:02.750Z,10.19
2019-01-26T09:42:03.012Z,9.76
2019-01-26T09:43:03.501Z,9.76
2019-01-26T09:44:03.025Z,9.29
2019-01-26T09:45:02.949Z,9.29
2019-01-26T09:46:03.198Z,8.4
2019-01-26T09:47:03.308Z,8.4
2019-01-26T09:48:03.569Z,9.62
2019-01-26T09:49:03.250Z,9.15
2019-01-26T09:50:03.180Z,9.14
2019-01-26T09:51:03.784Z,9
2019-01-26T09:52:03.166Z,9.75
2019-01-26T09:53:03.085Z,9.75
2019-01-26T09:54:03.315Z,9.02
2019-01-26T09:55:02.422Z,9.48
2019-01-26T09:56:02.993Z,7.83
2019-01-26T09:57:03.117Z,7.83
2019-01-26T09:58:03.649Z,8.45
2019-01-26T09:59:03.125Z,8.45
2019-01-26T10:00:03.245Z,8.76
2019-01-26T10:01:03.170Z,6.97
2019-01-26T10:02:03.050Z,9.11
2019-01-26T10:03:03.320Z,7.62
2019-01-26T10:04:02.926Z,7.62
2019-01-26T10:05:03.422Z,9.25
2019-01-26T10:06:03.660Z,7.66
2019-01-26T10:07:02.702Z,7.82
2019-01-26T10:08:02.185Z,7.98
2019-01-26T10:09:02.856Z,8.58
2019-01-26T10:10:03.195Z,7.48
2019-01-26T10:11:03.592Z,7.33
2019-01-26T10:12:02.168Z,8
2019-01-26T10:13:03.234Z,8
2019-01-26T10:14:03.090Z,6.83
2019-01-26T10:15:02.881Z,8.06
2019-01-26T10:16:03.423Z,7.61
2019-01-26T10:17:03.249Z,7.02
2019-01-26T10:18:02.952Z,7.02
2019-01-26T10:19:03.614Z,7.64
2019-01-26T10:20:03.421Z,7.64
2019-01-26T10:21:03.457Z,7.4
2019-01-26T10:22:03.312Z,6.7
2019-01-26T10:23:03.117Z,7.7
2019-01-26T10:24:03.254Z,7.7
2019-01-26T10:25:02.996Z,8.59
2019-01-26T10:26:03.484Z,7.87
2019-01-26T10:27:03.338Z,7.72
2019-01-26T10:28:02.937Z,7.72
2019-01-26T10:29:03.438Z,7.23
2019-01-26T10:30:02.711Z,7.55
2019-01-26T10:31:03.063Z,7.11
2019-01-26T10:32:03.642Z,7.05
2019-01-26T10:33:03.542Z,6.75
2019-01-26T10:34:03.549Z,6.49
2019-01-26T10:35:03.446Z,6.91
2019-01-26T10:36:02.664Z,6.91
2019-01-26T10:37:02.859Z,6.78
2019-01-26T10:38:03.171Z,6.75
2019-01-26T10:39:03.536Z,6.58
2019-01-26T10:40:02.997Z,6.44
2019-01-26T10:41:02.762Z,7.05
2019-01-26T10:42:03.302Z,7.05
2019-01-26T10:43:03.070Z,6.92
2019-01-26T10:44:03.784Z,7.5
2019-01-26T10:45:02.696Z,7.5
2019-01-26T10:46:03.654Z,7.7
2019-01-26T10:47:02.863Z,6.73
2019-01-26T10:48:02.861Z,6.73
2019-01-26T10:49:03.082Z,6.49
2019-01-26T10:50:03.340Z,7.59
2019-01-26T10:51:02.671Z,7.59
2019-01-26T10:52:02.603Z,7.96
2019-01-26T10:53:02.210Z,7.46
2019-01-26T10:54:02.432Z,7.46
2019-01-26T10:55:02.462Z,6.59
2019-01-26T10:56:03.117Z,7.26
2019-01-26T10:57:02.618Z,7.36
2019-01-26T10:58:03.116Z,7.46
2019-01-26T10:59:02.768Z,7.11
2019-01-26T11:00:03.601Z,6.98
2019-01-26T11:01:03.361Z,6.98
2019-01-26T11:02:03.476Z,6.3
2019-01-26T11:03:03.122Z,6.3
2019-01-26T11:04:02.792Z,6.84
2019-01-26T11:05:03.308Z,7.59
2019-01-26T11:06:03.008Z,7.59
2019-01-26T11:07:03.432Z,6.9
2019-01-26T11:08:02.915Z,6.9
2019-01-26T11:09:02.987Z,7.47
2019-01-26T11:10:03.208Z,7.47
2019-01-26T11:11:02.970Z,7.05
2019-01-26T11:12:02.920Z,7.05
2019-01-26T11:13:03.065Z,7.75
2019-01-26T11:14:03.380Z,7.4
2019-01-26T11:15:02.804Z,8.02
2019-01-26T11:16:02.707Z,8.02
2019-01-26T11:17:03.326Z,6.36
2019-01-26T11:18:03.289Z,6.78
2019-01-26T11:19:08.118Z,7.32
2019-01-26T11:20:03.671Z,6.77
2019-01-26T11:21:03.102Z,6.57
2019-01-26T11:22:02.897Z,8.06
2019-01-26T11:23:03.053Z,7.51
2019-01-26T11:24:01.985Z,7.69
2019-01-26T11:25:02.451Z,7.65
2019-01-26T11:26:03.545Z,7.64
2019-01-26T11:27:03.274Z,6.55
2019-01-26T11:28:03.436Z,6.94
2019-01-26T11:29:03.270Z,6.94
2019-01-26T11:30:02.973Z,6.89
2019-01-26T11:31:03.332Z,7.72
2019-01-26T11:32:03.412Z,6.85
2019-01-26T11:33:02.707Z,6.48
2019-01-26T11:34:02.726Z,6.48
2019-01-26T11:35:02.802Z,6.07
2019-01-26T11:36:03.437Z,6.07
2019-01-26T11:37:03.429Z,6.67
2019-01-26T11:38:03.082Z,7.11
2019-01-26T11:39:03.389Z,6.48
2019-01-26T11:40:03.540Z,6.48
2019-01-26T11:41:03.299Z,6.53
2019-01-26T11:42:03.331Z,6.71
2019-01-26T11:43:03.544Z,6.71
2019-01-26T11:44:03.319Z,7.11
2019-01-26T11:45:03.470Z,7.68
2019-01-26T11:46:02.870Z,7.52
2019-01-26T11:47:03.005Z,7.26
2019-01-26T11:48:03.359Z,7.26
2019-01-26T11:49:02.092Z,6.31
2019-01-26T11:50:03.276Z,6.54
2019-01-26T11:51:03.142Z,6.91
2019-01-26T11:52:02.880Z,8.56
2019-01-26T11:53:03.045Z,6.55
2019-01-26T11:54:02.891Z,7.76
2019-01-26T11:55:02.795Z,8.64
2019-01-26T11:56:03.078Z,8.34
2019-01-26T11:57:02.739Z,7.21
2019-01-26T11:58:03.063Z,7.21
2019-01-26T11:59:03.128Z,7.66
2019-01-26T12:00:03.515Z,7.66
2019-01-26T12:01:03.348Z,7.26
2019-01-26T12:02:03.272Z,6.22
2019-01-26T12:03:03.794Z,6.38
2019-01-26T12:04:03.086Z,6.38
2019-01-26T12:05:03.031Z,6.74
2019-01-26T12:06:03.569Z,6.47
2019-01-26T12:07:03.167Z,6.32
2019-01-26T12:08:03.145Z,6.32
2019-01-26T12:09:02.992Z,5.95
2019-01-26T12:10:03.521Z,6.61
2019-01-26T12:11:03.662Z,6.61
2019-01-26T12:12:02.984Z,6.91
2019-01-26T12:13:03.673Z,5.81
2019-01-26T12:14:01.792Z,6.76
2019-01-26T12:15:02.866Z,7.1
2019-01-26T12:16:03.580Z,7.1
2019-01-26T12:17:03.438Z,6.15
2019-01-26T12:18:02.755Z,6.15
2019-01-26T12:19:03.168Z,6.29
2019-01-26T12:20:03.115Z,6.29
2019-01-26T12:21:03.767Z,6.63
2019-01-26T12:22:03.333Z,6.63
2019-01-26T12:23:03.577Z,8.29
2019-01-26T12:24:03.203Z,8.29
2019-01-26T12:25:03.648Z,6.45
2019-01-26T12:26:02.975Z,6.45
2019-01-26T12:27:03.434Z,5.86
2019-01-26T12:28:02.830Z,5.86
2019-01-26T12:29:02.907Z,5.91
2019-01-26T12:30:02.811Z,6.34
2019-01-26T12:31:02.950Z,6.34
2019-01-26T12:32:03.769Z,6.01
2019-01-26T12:33:02.395Z,6.02
2019-01-26T12:34:02.026Z,5.38
2019-01-26T12:35:03.306Z,5.89
2019-01-26T12:36:01.905Z,6.8
2019-01-26T12:37:01.966Z,6.35
2019-01-26T12:38:03.422Z,6.35
2019-01-26T12:39:03.087Z,5.65
2019-01-26T12:40:03.480Z,5.6
2019-01-26T12:41:03.534Z,6.38
2019-01-26T12:42:03.573Z,4.74
2019-01-26T12:43:03.501Z,4.74
2019-01-26T12:44:02.934Z,5.66
2019-01-26T12:45:04.014Z,5.5
2019-01-26T12:46:03.638Z,5.49
2019-01-26T12:47:02.794Z,5.49
2019-01-26T12:48:03.152Z,4.8
2019-01-26T12:49:03.548Z,5.3
2019-01-26T12:50:03.209Z,5.32
2019-01-26T12:51:02.800Z,5.32
2019-01-26T12:52:03.362Z,4.52
2019-01-26T12:53:03.212Z,6.06
2019-01-26T12:54:02.948Z,5.59
2019-01-26T12:55:03.069Z,6.05
2019-01-26T12:56:03.010Z,6.81
2019-01-26T12:57:02.733Z,6.84
2019-01-26T12:58:03.734Z,6.84
2019-01-26T12:59:02.724Z,5.94
2019-01-26T13:00:03.626Z,5.94
2019-01-26T13:01:02.951Z,5.22
2019-01-26T13:02:03.559Z,6.32
2019-01-26T13:03:03.698Z,5.25
2019-01-26T13:04:03.316Z,5.25
2019-01-26T13:05:03.165Z,4.79
2019-01-26T13:06:02.862Z,4.99
2019-01-26T13:07:03.344Z,4.99
2019-01-26T13:08:02.591Z,5.04
2019-01-26T13:09:03.026Z,4.53
2019-01-26T13:10:02.814Z,4.53
2019-01-26T13:11:03.413Z,5.08
2019-01-26T13:12:03.001Z,5.49
2019-01-26T13:13:03.455Z,5.27
2019-01-26T13:14:03.124Z,5.27